createdAt,value
2019-02-28T00:02:00.786Z,100777.70
2019-02-28T00:04:31.887Z,100775.08
2019-02-28T00:06:56.812Z,100766.38
2019-02-28T00:09:25.663Z,100752.17
2019-02-28T00:11:53.312Z,100752.57
2019-02-28T00:14:20.599Z,100753.23
2019-02-28T00:16:47.643Z,100750.73
2019-02-28T00:19:15.438Z,100750.20
2019-02-28T00:21:42.794Z,100744.98
2019-02-28T00:24:09.820Z,100742.79
2019-02-28T00:26:36.515Z,100736.45
2019-02-28T00:29:03.310Z,100739.81
2019-02-28T00:31:30.237Z,100734.80
2019-02-28T00:33:57.237Z,100727.95
2019-02-28T00:36:24.277Z,100730.45
2019-02-28T00:38:51.509Z,100722.61
2019-02-28T00:41:18.530Z,100715.91
2019-02-28T00:43:45.638Z,100711.69
2019-02-28T00:46:12.312Z,100709.48
2019-02-28T00:48:39.582Z,100708.00
2019-02-28T00:51:06.576Z,100707.52
2019-02-28T00:53:37.400Z,100711.34
2019-02-28T00:56:03.902Z,100706.41
2019-02-28T00:58:30.583Z,100698.92
2019-02-28T01:00:57.619Z,100693.06
2019-02-28T01:03:27.435Z,100679.68
2019-02-28T01:05:54.551Z,100688.84
2019-02-28T01:08:22.227Z,100670.95
2019-02-28T01:10:49.459Z,100669.56
2019-02-28T01:13:17.008Z,100664.48
2019-02-28T01:15:45.726Z,100657.00
2019-02-28T01:18:13.884Z,100651.19
2019-02-28T01:20:40.654Z,100651.61
2019-02-28T01:23:07.930Z,100648.63
2019-02-28T01:25:37.180Z,100636.06
2019-02-28T01:28:04.906Z,100636.69
2019-02-28T01:30:31.817Z,100639.42
2019-02-28T01:32:58.482Z,100633.95
2019-02-28T01:35:26.189Z,100627.72
2019-02-28T01:37:53.956Z,100629.73
2019-02-28T01:40:20.889Z,100621.77
2019-02-28T01:42:48.206Z,100620.52
2019-02-28T01:45:15.177Z,100621.11
2019-02-28T01:47:42.322Z,100616.27
2019-02-28T01:50:10.414Z,100612.84
2019-02-28T01:52:37.216Z,100601.62
2019-02-28T01:55:06.309Z,100598.88
2019-02-28T01:57:35.222Z,100600.38
2019-02-28T02:00:02.277Z,100600.13
2019-02-28T02:02:29.906Z,100598.30
2019-02-28T02:04:57.160Z,100599.64
2019-02-28T02:07:24.979Z,100593.17
2019-02-28T02:09:52.771Z,100591.06
2019-02-28T02:12:20.593Z,100591.44
2019-02-28T02:14:48.061Z,100591.17
2019-02-28T02:17:14.989Z,100588.05
2019-02-28T02:19:42.045Z,100584.45
2019-02-28T02:22:10.228Z,100578.22
2019-02-28T02:24:37.292Z,100567.39
2019-02-28T02:27:04.603Z,100564.62
2019-02-28T02:29:32.386Z,100561.78
2019-02-28T02:32:02.383Z,100553.06
2019-02-28T02:34:30.021Z,100544.11
2019-02-28T02:36:57.508Z,100553.62
2019-02-28T02:39:25.395Z,100555.24
2019-02-28T02:41:52.048Z,100545.38
2019-02-28T02:44:19.369Z,100548.50
2019-02-28T02:46:46.351Z,100546.77
2019-02-28T02:49:18.567Z,100550.64
2019-02-28T02:51:49.056Z,100548.67
2019-02-28T02:54:17.859Z,100558.84
2019-02-28T02:56:42.052Z,100563.85
2019-02-28T02:59:10.059Z,100560.84
2019-02-28T03:01:37.337Z,100560.25
2019-02-28T03:04:04.213Z,100561.85
2019-02-28T03:06:31.299Z,100568.59
2019-02-28T03:08:57.986Z,100563.09
2019-02-28T03:11:25.942Z,100563.36
2019-02-28T03:13:53.259Z,100564.95
2019-02-28T03:16:20.093Z,100562.11
2019-02-28T03:18:47.323Z,100568.75
2019-02-28T03:21:15.494Z,100571.84
2019-02-28T03:23:43.827Z,100564.12
2019-02-28T03:26:10.757Z,100555.30
2019-02-28T03:28:38.537Z,100552.57
2019-02-28T03:31:11.579Z,100554.67
2019-02-28T03:33:33.909Z,100546.34
2019-02-28T03:36:00.818Z,100550.20
2019-02-28T03:38:28.766Z,100548.98
2019-02-28T03:40:55.975Z,100540.00
2019-02-28T03:43:23.299Z,100542.49
2019-02-28T03:45:51.110Z,100536.55
2019-02-28T03:48:18.071Z,100530.81
2019-02-28T03:50:44.759Z,100545.23
2019-02-28T03:53:12.157Z,100548.48
2019-02-28T03:55:40.788Z,100559.94
2019-02-28T03:58:07.958Z,100549.62
2019-02-28T04:00:36.072Z,100544.02
2019-02-28T04:03:04.530Z,100550.22
2019-02-28T04:05:31.243Z,100547.99
2019-02-28T04:07:57.904Z,100549.73
2019-02-28T04:10:25.238Z,100538.53
2019-02-28T04:12:52.297Z,100528.58
2019-02-28T04:15:19.997Z,100526.09
2019-02-28T04:17:46.871Z,100511.05
2019-02-28T04:20:14.185Z,100504.45
2019-02-28T04:22:41.339Z,100503.34
2019-02-28T04:25:10.146Z,100506.94
2019-02-28T04:27:40.233Z,100505.70
2019-02-28T04:30:08.866Z,100523.34
2019-02-28T04:32:35.636Z,100510.43
2019-02-28T04:35:04.153Z,100500.09
2019-02-28T04:37:31.407Z,100502.97
2019-02-28T04:39:58.558Z,100501.48
2019-02-28T04:42:25.262Z,100506.70
2019-02-28T04:44:52.628Z,100505.95
2019-02-28T04:47:19.262Z,100503.70
2019-02-28T04:49:46.518Z,100493.77
2019-02-28T04:52:14.291Z,100498.11
2019-02-28T04:54:40.982Z,100507.42
2019-02-28T04:57:08.221Z,100502.20
2019-02-28T04:59:36.339Z,100500.23
2019-02-28T05:02:03.506Z,100485.33
2019-02-28T05:04:33.192Z,100492.15
2019-02-28T05:06:59.387Z,100495.02
2019-02-28T05:09:26.191Z,100487.81
2019-02-28T05:11:52.991Z,100490.53
2019-02-28T05:14:23.379Z,100480.85
2019-02-28T05:16:48.465Z,100484.58
2019-02-28T05:19:16.422Z,100489.28
2019-02-28T05:21:43.100Z,100497.25
2019-02-28T05:24:09.809Z,100504.70
2019-02-28T05:26:36.518Z,100494.26
2019-02-28T05:29:04.402Z,100494.26
2019-02-28T05:31:31.307Z,100491.78
2019-02-28T05:33:58.559Z,100486.31
2019-02-28T05:36:25.500Z,100476.88
2019-02-28T05:38:53.615Z,100479.59
2019-02-28T05:41:22.506Z,100478.11
2019-02-28T05:43:49.968Z,100476.73
2019-02-28T05:46:17.017Z,100484.59
2019-02-28T05:48:44.554Z,100480.71
2019-02-28T05:51:12.126Z,100470.89
2019-02-28T05:53:41.330Z,100470.02
2019-02-28T05:56:07.462Z,100466.80
2019-02-28T05:58:34.488Z,100466.55
2019-02-28T06:01:01.147Z,100463.45
2019-02-28T06:03:30.368Z,100460.45
2019-02-28T06:05:57.770Z,100459.94
2019-02-28T06:08:24.809Z,100454.48
2019-02-28T06:10:56.060Z,100465.30
2019-02-28T06:13:21.886Z,100467.16
2019-02-28T06:15:49.022Z,100465.41
2019-02-28T06:18:16.318Z,100463.79
2019-02-28T06:20:43.734Z,100468.91
2019-02-28T06:23:10.425Z,100473.52
2019-02-28T06:25:38.183Z,100477.36
2019-02-28T06:28:04.881Z,100486.05
2019-02-28T06:30:33.227Z,100473.61
2019-02-28T06:33:00.741Z,100489.18
2019-02-28T06:35:28.177Z,100485.81
2019-02-28T06:37:54.865Z,100486.80
2019-02-28T06:40:22.632Z,100503.59
2019-02-28T06:42:50.038Z,100512.16
2019-02-28T06:45:17.723Z,100508.57
2019-02-28T06:47:48.604Z,100513.80
2019-02-28T06:50:15.088Z,100528.60
2019-02-28T06:52:42.494Z,100525.97
2019-02-28T06:55:12.591Z,100523.60
2019-02-28T06:57:41.133Z,100520.64
2019-02-28T07:00:10.432Z,100532.82
2019-02-28T07:02:37.219Z,100519.86
2019-02-28T07:05:04.795Z,100511.17
2019-02-28T07:07:32.200Z,100510.78
2019-02-28T07:09:59.541Z,100499.61
2019-02-28T07:12:29.814Z,100491.27
2019-02-28T07:14:55.347Z,100489.55
2019-02-28T07:17:22.416Z,100487.06
2019-02-28T07:19:49.331Z,100491.52
2019-02-28T07:22:19.609Z,100480.96
2019-02-28T07:24:46.127Z,100482.96
2019-02-28T07:27:13.342Z,100492.27
2019-02-28T07:29:42.664Z,100474.73
2019-02-28T07:32:09.757Z,100486.06
2019-02-28T07:34:36.958Z,100490.89
2019-02-28T07:37:03.750Z,100490.53
2019-02-28T07:39:31.477Z,100505.94
2019-02-28T07:41:58.793Z,100501.11
2019-02-28T07:44:28.026Z,100512.66
2019-02-28T07:46:55.686Z,100506.22
2019-02-28T07:49:22.375Z,100503.58
2019-02-28T07:51:49.403Z,100508.45
2019-02-28T07:54:20.414Z,100495.99
2019-02-28T07:56:47.561Z,100501.73
2019-02-28T07:59:14.909Z,100494.87
2019-02-28T08:01:42.057Z,100500.97
2019-02-28T08:04:09.097Z,100503.84
2019-02-28T08:06:39.232Z,100498.86
2019-02-28T08:09:20.072Z,100496.23
2019-02-28T08:11:47.586Z,100506.94
2019-02-28T08:14:14.609Z,100510.80
2019-02-28T08:16:41.930Z,100504.45
2019-02-28T08:19:09.150Z,100506.68
2019-02-28T08:21:36.786Z,100516.61
2019-02-28T08:24:05.375Z,100522.98
2019-02-28T08:26:33.357Z,100529.80
2019-02-28T08:29:00.641Z,100534.30
2019-02-28T08:31:28.296Z,100531.26
2019-02-28T08:33:57.775Z,100531.53
2019-02-28T08:36:26.128Z,100540.75
2019-02-28T08:38:53.693Z,100540.12
2019-02-28T08:41:22.570Z,100532.41
2019-02-28T08:43:50.137Z,100543.47
2019-02-28T08:46:17.298Z,100541.37
2019-02-28T08:48:44.608Z,100554.52
2019-02-28T08:51:12.409Z,100562.50
2019-02-28T08:53:40.376Z,100553.41
2019-02-28T08:56:07.412Z,100555.94
2019-02-28T08:58:37.752Z,100544.87
2019-02-28T09:01:06.541Z,100552.83
2019-02-28T09:03:33.458Z,100561.41
2019-02-28T09:06:04.195Z,100568.13
2019-02-28T09:08:31.166Z,100564.64
2019-02-28T09:10:58.648Z,100568.63
2019-02-28T09:13:25.646Z,100575.84
2019-02-28T09:15:53.013Z,100579.09
2019-02-28T09:18:19.721Z,100576.84
2019-02-28T09:20:47.115Z,100570.88
2019-02-28T09:23:15.185Z,100571.12
2019-02-28T09:25:43.523Z,100569.14
2019-02-28T09:28:13.018Z,100574.85
2019-02-28T09:30:41.049Z,100575.10
2019-02-28T09:33:08.063Z,100574.97
2019-02-28T09:35:35.770Z,100573.59
2019-02-28T09:38:06.272Z,100577.96
2019-02-28T09:40:31.783Z,100580.57
2019-02-28T09:42:59.459Z,100582.67
2019-02-28T09:45:26.165Z,100576.93
2019-02-28T09:47:52.955Z,100588.14
2019-02-28T09:50:22.477Z,100580.30
2019-02-28T09:52:49.419Z,100580.30
2019-02-28T09:55:17.222Z,100575.56
2019-02-28T09:57:44.918Z,100570.45
2019-02-28T10:00:14.814Z,100582.92
2019-02-28T10:02:44.050Z,100588.25
2019-02-28T10:05:11.779Z,100588.88
2019-02-28T10:07:38.761Z,100588.28
2019-02-28T10:10:08.703Z,100591.88
2019-02-28T10:12:35.681Z,100607.81
2019-02-28T10:15:07.039Z,100608.56
2019-02-28T10:17:34.258Z,100607.95
2019-02-28T10:20:01.421Z,100603.72
2019-02-28T10:22:28.887Z,100595.73
2019-02-28T10:24:56.552Z,100595.97
2019-02-28T10:27:26.892Z,100601.69
2019-02-28T10:29:52.394Z,100608.19
2019-02-28T10:32:19.366Z,100611.63
2019-02-28T10:34:47.321Z,100610.90
2019-02-28T10:37:15.162Z,100606.65
2019-02-28T10:39:43.818Z,100616.63
2019-02-28T10:42:11.929Z,100622.21
2019-02-28T10:44:39.889Z,100615.36
2019-02-28T10:47:06.991Z,100617.73
2019-02-28T10:49:33.777Z,100625.23
2019-02-28T10:52:01.432Z,100629.06
2019-02-28T10:54:29.218Z,100625.45
2019-02-28T10:56:56.448Z,100619.86
2019-02-28T10:59:24.395Z,100616.33
2019-02-28T11:01:52.186Z,100616.14
2019-02-28T11:04:19.759Z,100613.80
2019-02-28T11:06:46.974Z,100620.03
2019-02-28T11:09:21.814Z,100622.05
2019-02-28T11:11:48.305Z,100628.76
2019-02-28T11:14:15.683Z,100628.06
2019-02-28T11:16:42.967Z,100624.84
2019-02-28T11:19:10.179Z,100631.80
2019-02-28T11:21:37.669Z,100625.84
2019-02-28T11:24:04.715Z,100626.13
2019-02-28T11:26:32.796Z,100636.56
2019-02-28T11:29:03.159Z,100637.06
2019-02-28T11:31:29.389Z,100625.73
2019-02-28T11:33:57.122Z,100624.48
2019-02-28T11:36:25.297Z,100625.56
2019-02-28T11:38:52.526Z,100611.59
2019-02-28T11:41:21.641Z,100616.33
2019-02-28T11:43:48.435Z,100618.20
2019-02-28T11:46:15.700Z,100613.56
2019-02-28T11:48:42.869Z,100611.86
2019-02-28T11:51:09.659Z,100610.37
2019-02-28T11:53:40.402Z,100622.53
2019-02-28T11:56:05.742Z,100629.25
2019-02-28T11:58:33.097Z,100629.25
2019-02-28T12:01:02.255Z,100618.02
2019-02-28T12:03:31.830Z,100609.55
2019-02-28T12:05:57.918Z,100605.04
2019-02-28T12:08:24.690Z,100606.53
2019-02-28T12:10:51.992Z,100613.01
2019-02-28T12:13:20.578Z,100626.47
2019-02-28T12:15:47.795Z,100635.69
2019-02-28T12:18:14.822Z,100624.61
2019-02-28T12:20:41.499Z,100618.55
2019-02-28T12:23:08.927Z,100609.96
2019-02-28T12:25:35.691Z,100610.34
2019-02-28T12:28:06.358Z,100611.83
2019-02-28T12:30:32.791Z,100606.84
2019-02-28T12:33:00.477Z,100594.91
2019-02-28T12:35:27.723Z,100596.91
2019-02-28T12:37:55.050Z,100592.41
2019-02-28T12:40:24.233Z,100595.39
2019-02-28T12:42:51.342Z,100597.88
2019-02-28T12:45:25.173Z,100593.63
2019-02-28T12:47:51.908Z,100591.93
2019-02-28T12:50:19.432Z,100597.78
2019-02-28T12:52:49.890Z,100593.91
2019-02-28T12:55:18.073Z,100599.27
2019-02-28T12:57:46.298Z,100598.27
2019-02-28T13:00:25.097Z,100594.59
2019-02-28T13:02:52.658Z,100595.35
2019-02-28T13:05:19.950Z,100592.66
2019-02-28T13:07:48.582Z,100594.01
2019-02-28T13:10:17.122Z,100587.19
2019-02-28T13:12:48.829Z,100585.04
2019-02-28T13:15:15.335Z,100580.78
2019-02-28T13:17:42.745Z,100581.36
2019-02-28T13:20:12.950Z,100581.61
2019-02-28T13:22:40.918Z,100575.17
2019-02-28T13:25:08.485Z,100579.30
2019-02-28T13:27:35.832Z,100588.11
2019-02-28T13:30:05.496Z,100580.36
2019-02-28T13:32:38.288Z,100572.12
2019-02-28T13:35:07.442Z,100571.53
2019-02-28T13:37:33.694Z,100577.91
2019-02-28T13:40:04.341Z,100575.61
2019-02-28T13:42:30.838Z,100579.11
2019-02-28T13:44:57.529Z,100575.89
2019-02-28T13:47:24.718Z,100579.92
2019-02-28T13:49:52.429Z,100582.13
2019-02-28T13:52:20.914Z,100570.42
2019-02-28T13:54:48.114Z,100575.80
2019-02-28T13:57:15.423Z,100579.16
2019-02-28T13:59:42.118Z,100573.92
2019-02-28T14:02:09.732Z,100570.67
2019-02-28T14:04:36.646Z,100573.02
2019-02-28T14:07:03.880Z,100567.17
2019-02-28T14:09:31.330Z,100572.78
2019-02-28T14:11:58.674Z,100585.34
2019-02-28T14:14:26.495Z,100596.84
2019-02-28T14:16:53.634Z,100599.47
2019-02-28T14:19:21.467Z,100599.37
2019-02-28T14:21:49.429Z,100574.77
2019-02-28T14:24:16.743Z,100585.45
2019-02-28T14:26:46.542Z,100580.99
2019-02-28T14:29:13.143Z,100578.47
2019-02-28T14:31:40.344Z,100590.69
2019-02-28T14:34:07.735Z,100595.18
2019-02-28T14:36:35.322Z,100598.88
2019-02-28T14:39:04.694Z,100598.61
2019-02-28T14:41:34.100Z,100592.90
2019-02-28T14:44:01.451Z,100593.87
2019-02-28T14:46:29.226Z,100587.64
2019-02-28T14:48:57.191Z,100591.66
2019-02-28T14:51:25.485Z,100594.87
2019-02-28T14:53:52.625Z,100597.74
2019-02-28T14:56:19.318Z,100595.73
2019-02-28T14:58:46.289Z,100602.34
2019-02-28T15:01:16.801Z,100595.59
2019-02-28T15:03:42.704Z,100595.88
2019-02-28T15:06:09.896Z,100601.72
2019-02-28T15:08:36.967Z,100598.71
2019-02-28T15:11:06.591Z,100603.11
2019-02-28T15:13:34.280Z,100613.28
2019-02-28T15:16:01.663Z,100611.20
2019-02-28T15:18:28.894Z,100612.70
2019-02-28T15:20:55.573Z,100610.62
2019-02-28T15:23:22.719Z,100614.11
2019-02-28T15:25:50.768Z,100605.88
2019-02-28T15:28:18.783Z,100600.41
2019-02-28T15:30:45.450Z,100596.42
2019-02-28T15:33:12.970Z,100603.63
2019-02-28T15:35:40.603Z,100601.79
2019-02-28T15:38:09.100Z,100602.03
2019-02-28T15:40:37.283Z,100601.89
2019-02-28T15:43:04.508Z,100604.62
2019-02-28T15:45:31.285Z,100599.37
2019-02-28T15:47:59.152Z,100594.91
2019-02-28T15:50:26.826Z,100589.16
2019-02-28T15:52:55.047Z,100596.16
2019-02-28T15:55:22.962Z,100596.29
2019-02-28T15:57:49.932Z,100598.40
2019-02-28T16:00:22.105Z,100595.25
2019-02-28T16:02:48.774Z,100599.47
2019-02-28T16:05:16.781Z,100595.22
2019-02-28T16:07:43.653Z,100590.89
2019-02-28T16:10:12.648Z,100585.66
2019-02-28T16:12:39.717Z,100590.38
2019-02-28T16:15:08.735Z,100583.62
2019-02-28T16:17:36.817Z,100591.27
2019-02-28T16:20:05.791Z,100578.43
2019-02-28T16:22:33.034Z,100588.53
2019-02-28T16:25:00.831Z,100584.94
2019-02-28T16:27:29.611Z,100576.70
2019-02-28T16:29:58.686Z,100586.63
2019-02-28T16:32:25.383Z,100577.77
2019-02-28T16:34:52.045Z,100581.89
2019-02-28T16:37:18.727Z,100578.67
2019-02-28T16:39:49.104Z,100585.28
2019-02-28T16:42:17.545Z,100577.28
2019-02-28T16:44:44.478Z,100568.70
2019-02-28T16:47:11.615Z,100569.95
2019-02-28T16:49:41.350Z,100575.17
2019-02-28T16:52:07.929Z,100577.52
2019-02-28T16:54:35.787Z,100572.02
2019-02-28T16:57:02.575Z,100572.16
2019-02-28T16:59:31.725Z,100569.14
2019-02-28T17:01:59.541Z,100567.69
2019-02-28T17:04:26.562Z,100565.93
2019-02-28T17:06:55.507Z,100568.70
2019-02-28T17:09:30.319Z,100565.93
2019-02-28T17:12:06.379Z,100574.12
2019-02-28T17:14:33.911Z,100572.68
2019-02-28T17:17:14.111Z,100575.17
2019-02-28T17:19:41.810Z,100573.41
2019-02-28T17:22:09.158Z,100579.15
2019-02-28T17:24:36.487Z,100582.38
2019-02-28T17:27:22.964Z,100593.09
2019-02-28T17:30:09.422Z,100587.22
2019-02-28T17:32:36.694Z,100583.72
2019-02-28T17:35:05.595Z,100580.98
2019-02-28T17:37:32.395Z,100580.16
2019-02-28T17:39:59.466Z,100578.19
2019-02-28T17:42:26.469Z,100580.77
2019-02-28T17:45:01.845Z,100577.42
2019-02-28T17:48:12.725Z,100578.95
2019-02-28T17:50:51.350Z,100579.47
2019-02-28T17:53:32.652Z,100575.25
2019-02-28T17:56:32.120Z,100578.02
2019-02-28T17:59:39.242Z,100577.15
2019-02-28T18:02:46.742Z,100577.88
2019-02-28T18:05:50.711Z,100581.27
2019-02-28T18:08:27.200Z,100584.34
2019-02-28T18:11:09.305Z,100587.62
2019-02-28T18:14:05.812Z,100589.25
2019-02-28T18:17:09.979Z,100591.12
2019-02-28T18:20:28.978Z,100591.02
2019-02-28T18:23:41.794Z,100591.00
2019-02-28T18:26:52.396Z,100586.02
2019-02-28T18:30:01.146Z,100585.75
2019-02-28T18:32:33.034Z,100592.00
2019-02-28T18:34:58.809Z,100591.23
2019-02-28T18:37:25.611Z,100587.14
2019-02-28T18:39:52.981Z,100586.03
2019-02-28T18:42:20.102Z,100589.98
2019-02-28T18:44:47.530Z,100597.21
2019-02-28T18:47:14.940Z,100602.19
2019-02-28T18:49:42.843Z,100596.22
2019-02-28T18:52:20.267Z,100594.08
2019-02-28T18:55:05.714Z,100594.21
2019-02-28T18:57:40.895Z,100583.89
2019-02-28T19:00:20.188Z,100578.66
2019-02-28T19:02:49.668Z,100586.66
2019-02-28T19:05:23.091Z,100582.30
2019-02-28T19:07:59.888Z,100579.81
2019-02-28T19:10:32.468Z,100579.83
2019-02-28T19:13:01.690Z,100580.43
2019-02-28T19:15:28.490Z,100581.31
2019-02-28T19:18:01.199Z,100580.80
2019-02-28T19:20:33.074Z,100582.55
2019-02-28T19:23:04.088Z,100591.27
2019-02-28T19:25:36.574Z,100586.02
2019-02-28T19:28:04.298Z,100584.30
2019-02-28T19:30:32.414Z,100586.80
2019-02-28T19:33:02.360Z,100582.92
2019-02-28T19:35:36.618Z,100562.91
2019-02-28T19:38:12.144Z,100574.36
2019-02-28T19:40:50.446Z,100565.64
2019-02-28T19:43:20.968Z,100565.13
2019-02-28T19:45:48.430Z,100572.35
2019-02-28T19:48:15.526Z,100567.14
2019-02-28T19:50:46.626Z,100578.34
2019-02-28T19:53:18.880Z,100576.86
2019-02-28T19:55:48.275Z,100583.83
2019-02-28T19:58:21.053Z,100571.48
2019-02-28T20:00:59.277Z,100562.52
2019-02-28T20:03:41.692Z,100560.92
2019-02-28T20:09:04.609Z,100569.63
2019-02-28T20:11:33.186Z,100559.43
2019-02-28T20:14:00.756Z,100559.68
2019-02-28T20:16:28.560Z,100554.95
2019-02-28T20:18:55.912Z,100550.47
2019-02-28T20:21:23.175Z,100545.62
2019-02-28T20:23:51.233Z,100544.75
2019-02-28T20:26:19.002Z,100544.14
2019-02-28T20:28:45.817Z,100536.55
2019-02-28T20:31:12.762Z,100540.77
2019-02-28T20:33:40.206Z,100540.41
2019-02-28T20:36:07.026Z,100536.42
2019-02-28T20:38:34.415Z,100538.02
2019-02-28T20:41:01.613Z,100539.05
2019-02-28T20:43:28.415Z,100536.91
2019-02-28T20:45:55.991Z,100524.25
2019-02-28T20:48:23.019Z,100545.27
2019-02-28T20:50:50.149Z,100540.64
2019-02-28T20:53:17.617Z,100540.51
2019-02-28T20:55:44.653Z,100541.77
2019-02-28T20:58:12.238Z,100538.17
2019-02-28T21:00:39.916Z,100545.63
2019-02-28T21:03:07.086Z,100542.80
2019-02-28T21:05:34.197Z,100541.13
2019-02-28T21:08:01.249Z,100539.27
2019-02-28T21:10:28.592Z,100543.62
2019-02-28T21:12:55.889Z,100544.25
2019-02-28T21:15:24.671Z,100547.73
2019-02-28T21:17:51.578Z,100546.98
2019-02-28T21:20:19.025Z,100549.24
2019-02-28T21:22:45.842Z,100544.52
2019-02-28T21:25:12.806Z,100548.73
2019-02-28T21:27:39.583Z,100550.72
2019-02-28T21:30:15.442Z,100547.00
2019-02-28T21:32:42.790Z,100552.35
2019-02-28T21:35:10.373Z,100557.57
2019-02-28T21:37:37.701Z,100557.80
2019-02-28T21:40:06.934Z,100553.33
2019-02-28T21:42:35.958Z,100552.34
2019-02-28T21:45:04.277Z,100547.51
2019-02-28T21:47:32.889Z,100546.50
2019-02-28T21:50:00.436Z,100543.65
2019-02-28T21:52:28.321Z,100540.66
2019-02-28T21:54:55.558Z,100542.77
2019-02-28T21:57:22.211Z,100538.55
2019-02-28T21:59:49.679Z,100542.28
2019-02-28T22:02:16.379Z,100547.97
2019-02-28T22:04:44.142Z,100548.73
2019-02-28T22:07:11.598Z,100541.03
2019-02-28T22:09:38.935Z,100541.27
2019-02-28T22:12:05.976Z,100542.52
2019-02-28T22:14:32.650Z,100543.77
2019-02-28T22:16:59.630Z,100550.71
2019-02-28T22:19:27.160Z,100546.50
2019-02-28T22:21:54.802Z,100541.77
2019-02-28T22:24:22.055Z,100535.30
2019-02-28T22:26:49.395Z,100531.21
2019-02-28T22:29:16.840Z,100530.09
2019-02-28T22:32:02.547Z,100535.92
2019-02-28T22:34:49.207Z,100526.73
2019-02-28T22:37:15.999Z,100526.86
2019-02-28T22:39:42.780Z,100525.84
2019-02-28T22:42:09.478Z,100532.44
2019-02-28T22:44:36.507Z,100530.83
2019-02-28T22:47:03.400Z,100524.34
2019-02-28T22:49:33.653Z,100518.37
2019-02-28T22:52:00.707Z,100522.62
2019-02-28T22:54:27.394Z,100517.16
2019-02-28T22:56:54.078Z,100523.10
2019-02-28T22:59:22.162Z,100516.88
2019-02-28T23:01:49.192Z,100507.44
2019-02-28T23:04:15.889Z,100505.47
2019-02-28T23:06:43.199Z,100500.73
2019-02-28T23:09:10.390Z,100492.78
2019-02-28T23:11:37.791Z,100498.98
2019-02-28T23:14:05.194Z,100495.70
2019-02-28T23:16:32.124Z,100494.00
2019-02-28T23:18:59.760Z,100485.80
2019-02-28T23:21:26.891Z,100482.81
2019-02-28T23:23:53.612Z,100481.34
2019-02-28T23:26:25.052Z,100479.36
2019-02-28T23:29:09.106Z,100482.84
2019-02-28T23:32:06.581Z,100483.44
2019-02-28T23:34:39.930Z,100480.34
2019-02-28T23:37:07.081Z,100478.85
2019-02-28T23:39:34.654Z,100473.63
2019-02-28T23:42:02.605Z,100474.37
2019-02-28T23:44:30.308Z,100469.16
2019-02-28T23:46:57.716Z,100469.65
2019-02-28T23:49:24.445Z,100467.17
2019-02-28T23:51:51.370Z,100468.78
2019-02-28T23:54:18.374Z,100471.63
2019-02-28T23:56:45.682Z,100473.00
2019-02-28T23:59:13.354Z,100467.91
